Pagina principale
METAR-TAF:

METAR-TAF

Aeroporti :

Passo Rolle, Italia

latitudine: 46-18N, longitudine: 011-47E, altezza: 2004 m

Osservazione

Il bollettino è stato emesso 2 ore e 41 minuti fa, alle 20:55 UTC
Vento 2 kt da est
Temperature 12°C
Umidità 100%
Pressione 1026 hPa
Visibilità: 0500 m
nebbia

METAR: LIVR 142055Z 09002KT 0500 FG VV/// 12/12 Q1026 RMK MON INVIS VIS MIN 0500

Ora: 01:36 (23:36 UTC)


TAF: mancante

Osservazioni e previsioni meteorologiche di più di 4000 aeroporti (messaggi METAR e TAF).

Le stazioni disponibili sono rappresentate dai dischi gialli e rossi sulla carta.

Puntare il mouse per vedere il nome della stazione.

Clicca sopra per visualizzare le osservazioni e previsioni meteorologiche.

Per cambiare la mappa : fare clic sui pulsanti verdi con una croce nera per ingrandire, il pulsante verde con un trattino per diminuire, o sulla freccia verde per le mappe adiacenti.


METAR-TAF: